sensor_id;sensor_type;location;lat;lon;timestamp;P1;durP1;ratioP1;P2;durP2;ratioP2
43086;SDS011;28708;52.224;6.924;2024-02-26T00:01:53;4.53;;;2.17;;
43086;SDS011;28708;52.224;6.924;2024-02-26T00:04:19;4.87;;;2.50;;
43086;SDS011;28708;52.224;6.924;2024-02-26T00:06:46;4.67;;;2.40;;
43086;SDS011;28708;52.224;6.924;2024-02-26T00:09:13;3.70;;;2.07;;
43086;SDS011;28708;52.224;6.924;2024-02-26T00:11:38;4.57;;;2.40;;
43086;SDS011;28708;52.224;6.924;2024-02-26T00:14:04;4.20;;;2.47;;
43086;SDS011;28708;52.224;6.924;2024-02-26T00:16:30;3.63;;;2.20;;
43086;SDS011;28708;52.224;6.924;2024-02-26T00:18:56;4.70;;;2.43;;
43086;SDS011;28708;52.224;6.924;2024-02-26T00:21:22;4.00;;;2.17;;
43086;SDS011;28708;52.224;6.924;2024-02-26T00:23:49;4.07;;;2.07;;
43086;SDS011;28708;52.224;6.924;2024-02-26T00:26:16;3.60;;;2.00;;
43086;SDS011;28708;52.224;6.924;2024-02-26T00:28:41;4.13;;;2.40;;
43086;SDS011;28708;52.224;6.924;2024-02-26T00:31:07;3.80;;;2.33;;
43086;SDS011;28708;52.224;6.924;2024-02-26T00:33:32;5.23;;;2.50;;
43086;SDS011;28708;52.224;6.924;2024-02-26T00:35:58;5.80;;;2.53;;
43086;SDS011;28708;52.224;6.924;2024-02-26T00:38:24;4.03;;;2.33;;
43086;SDS011;28708;52.224;6.924;2024-02-26T00:40:49;3.73;;;2.40;;
43086;SDS011;28708;52.224;6.924;2024-02-26T00:43:15;4.07;;;2.13;;
43086;SDS011;28708;52.224;6.924;2024-02-26T00:45:40;3.63;;;2.07;;
43086;SDS011;28708;52.224;6.924;2024-02-26T00:48:06;4.67;;;2.40;;
43086;SDS011;28708;52.224;6.924;2024-02-26T00:50:32;4.43;;;2.37;;
43086;SDS011;28708;52.224;6.924;2024-02-26T00:53:01;4.07;;;2.20;;
43086;SDS011;28708;52.224;6.924;2024-02-26T00:55:27;5.07;;;2.20;;
43086;SDS011;28708;52.224;6.924;2024-02-26T00:57:53;3.33;;;2.17;;
43086;SDS011;28708;52.224;6.924;2024-02-26T01:00:18;5.00;;;2.73;;
43086;SDS011;28708;52.224;6.924;2024-02-26T01:02:44;5.07;;;2.40;;
43086;SDS011;28708;52.224;6.924;2024-02-26T01:05:14;5.67;;;2.67;;
43086;SDS011;28708;52.224;6.924;2024-02-26T01:07:41;4.43;;;2.27;;
43086;SDS011;28708;52.224;6.924;2024-02-26T01:10:07;4.03;;;2.40;;
43086;SDS011;28708;52.224;6.924;2024-02-26T01:12:33;4.03;;;2.20;;
43086;SDS011;28708;52.224;6.924;2024-02-26T01:15:03;3.83;;;2.40;;
43086;SDS011;28708;52.224;6.924;2024-02-26T01:17:29;4.28;;;2.60;;
43086;SDS011;28708;52.224;6.924;2024-02-26T01:19:55;4.70;;;2.77;;
43086;SDS011;28708;52.224;6.924;2024-02-26T01:22:21;4.33;;;2.60;;
43086;SDS011;28708;52.224;6.924;2024-02-26T01:24:47;4.90;;;2.40;;
43086;SDS011;28708;52.224;6.924;2024-02-26T01:27:13;4.70;;;2.37;;
43086;SDS011;28708;52.224;6.924;2024-02-26T01:29:40;6.70;;;2.87;;
43086;SDS011;28708;52.224;6.924;2024-02-26T01:32:10;5.18;;;2.70;;
43086;SDS011;28708;52.224;6.924;2024-02-26T01:34:35;7.33;;;2.27;;
43086;SDS011;28708;52.224;6.924;2024-02-26T01:37:02;5.10;;;2.47;;
43086;SDS011;28708;52.224;6.924;2024-02-26T01:39:28;5.17;;;2.63;;
43086;SDS011;28708;52.224;6.924;2024-02-26T01:41:55;4.47;;;2.40;;
43086;SDS011;28708;52.224;6.924;2024-02-26T01:44:21;4.37;;;2.63;;
43086;SDS011;28708;52.224;6.924;2024-02-26T01:46:46;5.87;;;3.07;;
43086;SDS011;28708;52.224;6.924;2024-02-26T01:49:13;4.23;;;2.37;;
43086;SDS011;28708;52.224;6.924;2024-02-26T01:51:41;5.37;;;2.00;;
43086;SDS011;28708;52.224;6.924;2024-02-26T01:54:08;5.83;;;2.43;;
43086;SDS011;28708;52.224;6.924;2024-02-26T01:56:35;4.67;;;2.20;;
43086;SDS011;28708;52.224;6.924;2024-02-26T01:59:02;3.73;;;1.80;;
43086;SDS011;28708;52.224;6.924;2024-02-26T02:01:31;3.57;;;2.00;;
43086;SDS011;28708;52.224;6.924;2024-02-26T02:03:58;3.90;;;2.00;;
43086;SDS011;28708;52.224;6.924;2024-02-26T02:06:25;3.07;;;1.87;;
43086;SDS011;28708;52.224;6.924;2024-02-26T02:08:52;3.87;;;2.20;;
43086;SDS011;28708;52.224;6.924;2024-02-26T02:11:18;4.47;;;2.07;;
43086;SDS011;28708;52.224;6.924;2024-02-26T02:13:44;4.67;;;2.23;;
43086;SDS011;28708;52.224;6.924;2024-02-26T02:16:10;3.60;;;2.23;;
43086;SDS011;28708;52.224;6.924;2024-02-26T02:18:35;3.73;;;2.00;;
43086;SDS011;28708;52.224;6.924;2024-02-26T02:21:01;5.10;;;2.50;;
43086;SDS011;28708;52.224;6.924;2024-02-26T02:23:27;4.13;;;2.27;;
43086;SDS011;28708;52.224;6.924;2024-02-26T02:25:52;4.13;;;2.03;;
43086;SDS011;28708;52.224;6.924;2024-02-26T02:28:20;4.23;;;2.10;;
43086;SDS011;28708;52.224;6.924;2024-02-26T02:30:46;4.60;;;2.57;;
43086;SDS011;28708;52.224;6.924;2024-02-26T02:33:13;3.73;;;2.37;;
43086;SDS011;28708;52.224;6.924;2024-02-26T02:35:40;2.80;;;1.97;;
43086;SDS011;28708;52.224;6.924;2024-02-26T02:38:06;4.60;;;2.33;;
43086;SDS011;28708;52.224;6.924;2024-02-26T02:40:31;3.70;;;1.87;;
43086;SDS011;28708;52.224;6.924;2024-02-26T02:42:57;3.10;;;1.73;;
43086;SDS011;28708;52.224;6.924;2024-02-26T02:45:23;3.00;;;1.63;;
43086;SDS011;28708;52.224;6.924;2024-02-26T02:47:49;4.17;;;2.17;;
43086;SDS011;28708;52.224;6.924;2024-02-26T02:50:15;4.23;;;2.27;;
43086;SDS011;28708;52.224;6.924;2024-02-26T02:52:41;3.90;;;1.70;;
43086;SDS011;28708;52.224;6.924;2024-02-26T02:55:06;4.63;;;2.20;;
43086;SDS011;28708;52.224;6.924;2024-02-26T02:57:32;4.20;;;2.00;;
43086;SDS011;28708;52.224;6.924;2024-02-26T02:59:58;3.93;;;2.20;;
43086;SDS011;28708;52.224;6.924;2024-02-26T03:02:24;3.60;;;2.17;;
43086;SDS011;28708;52.224;6.924;2024-02-26T03:04:50;1.90;;;1.33;;
43086;SDS011;28708;52.224;6.924;2024-02-26T03:07:15;3.57;;;1.80;;
43086;SDS011;28708;52.224;6.924;2024-02-26T03:09:41;3.47;;;1.87;;
43086;SDS011;28708;52.224;6.924;2024-02-26T03:12:07;3.37;;;1.90;;
43086;SDS011;28708;52.224;6.924;2024-02-26T03:14:36;3.03;;;1.60;;
43086;SDS011;28708;52.224;6.924;2024-02-26T03:17:01;2.93;;;1.70;;
43086;SDS011;28708;52.224;6.924;2024-02-26T03:19:27;3.10;;;1.57;;
43086;SDS011;28708;52.224;6.924;2024-02-26T03:21:52;4.17;;;1.80;;
43086;SDS011;28708;52.224;6.924;2024-02-26T03:24:18;3.27;;;1.63;;
43086;SDS011;28708;52.224;6.924;2024-02-26T03:26:44;3.10;;;1.40;;
43086;SDS011;28708;52.224;6.924;2024-02-26T03:29:09;2.30;;;1.27;;
43086;SDS011;28708;52.224;6.924;2024-02-26T03:31:35;3.17;;;1.50;;
43086;SDS011;28708;52.224;6.924;2024-02-26T03:34:01;2.17;;;1.30;;
43086;SDS011;28708;52.224;6.924;2024-02-26T03:36:26;2.80;;;1.37;;
43086;SDS011;28708;52.224;6.924;2024-02-26T03:38:52;3.40;;;1.60;;
43086;SDS011;28708;52.224;6.924;2024-02-26T03:41:18;2.20;;;1.40;;
43086;SDS011;28708;52.224;6.924;2024-02-26T03:43:43;1.77;;;1.13;;
43086;SDS011;28708;52.224;6.924;2024-02-26T03:46:10;3.20;;;1.47;;
43086;SDS011;28708;52.224;6.924;2024-02-26T03:48:37;2.70;;;1.77;;
43086;SDS011;28708;52.224;6.924;2024-02-26T03:51:03;2.53;;;1.30;;
43086;SDS011;28708;52.224;6.924;2024-02-26T03:53:28;3.03;;;1.70;;
43086;SDS011;28708;52.224;6.924;2024-02-26T03:55:54;3.47;;;1.60;;
43086;SDS011;28708;52.224;6.924;2024-02-26T03:58:20;2.73;;;1.50;;
43086;SDS011;28708;52.224;6.924;2024-02-26T04:00:46;2.47;;;1.37;;
43086;SDS011;28708;52.224;6.924;2024-02-26T04:03:14;2.83;;;1.27;;
43086;SDS011;28708;52.224;6.924;2024-02-26T04:05:41;2.40;;;1.30;;
43086;SDS011;28708;52.224;6.924;2024-02-26T04:08:06;2.57;;;1.57;;
43086;SDS011;28708;52.224;6.924;2024-02-26T04:10:33;2.70;;;1.43;;
43086;SDS011;28708;52.224;6.924;2024-02-26T04:13:00;3.30;;;1.43;;
43086;SDS011;28708;52.224;6.924;2024-02-26T04:15:27;2.03;;;1.33;;
43086;SDS011;28708;52.224;6.924;2024-02-26T04:17:53;2.27;;;1.37;;
43086;SDS011;28708;52.224;6.924;2024-02-26T04:20:18;3.40;;;1.50;;
43086;SDS011;28708;52.224;6.924;2024-02-26T04:22:44;2.07;;;1.10;;
43086;SDS011;28708;52.224;6.924;2024-02-26T04:25:10;3.83;;;1.57;;
43086;SDS011;28708;52.224;6.924;2024-02-26T04:27:36;2.60;;;1.67;;
43086;SDS011;28708;52.224;6.924;2024-02-26T04:30:02;2.87;;;1.50;;
43086;SDS011;28708;52.224;6.924;2024-02-26T04:32:29;2.30;;;1.27;;
43086;SDS011;28708;52.224;6.924;2024-02-26T04:34:54;1.77;;;1.20;;
43086;SDS011;28708;52.224;6.924;2024-02-26T04:37:20;2.67;;;1.57;;
43086;SDS011;28708;52.224;6.924;2024-02-26T04:39:45;2.40;;;1.50;;
43086;SDS011;28708;52.224;6.924;2024-02-26T04:42:11;3.90;;;1.70;;
43086;SDS011;28708;52.224;6.924;2024-02-26T04:44:37;3.20;;;1.47;;
43086;SDS011;28708;52.224;6.924;2024-02-26T04:47:03;2.37;;;1.37;;
43086;SDS011;28708;52.224;6.924;2024-02-26T04:49:28;2.37;;;1.30;;
43086;SDS011;28708;52.224;6.924;2024-02-26T04:51:54;3.67;;;1.50;;
43086;SDS011;28708;52.224;6.924;2024-02-26T04:54:20;2.30;;;1.47;;
43086;SDS011;28708;52.224;6.924;2024-02-26T04:56:46;2.73;;;1.50;;
43086;SDS011;28708;52.224;6.924;2024-02-26T04:59:12;3.70;;;1.70;;
43086;SDS011;28708;52.224;6.924;2024-02-26T05:01:37;2.20;;;1.17;;
43086;SDS011;28708;52.224;6.924;2024-02-26T05:04:04;4.00;;;1.87;;
43086;SDS011;28708;52.224;6.924;2024-02-26T05:06:30;3.17;;;1.47;;
43086;SDS011;28708;52.224;6.924;2024-02-26T05:08:56;2.97;;;1.50;;
43086;SDS011;28708;52.224;6.924;2024-02-26T05:11:21;5.37;;;1.57;;
43086;SDS011;28708;52.224;6.924;2024-02-26T05:13:50;3.27;;;1.40;;
43086;SDS011;28708;52.224;6.924;2024-02-26T05:16:16;3.27;;;1.47;;
43086;SDS011;28708;52.224;6.924;2024-02-26T05:18:41;3.23;;;1.50;;
43086;SDS011;28708;52.224;6.924;2024-02-26T05:21:07;5.53;;;1.70;;
43086;SDS011;28708;52.224;6.924;2024-02-26T05:23:32;2.40;;;1.37;;
43086;SDS011;28708;52.224;6.924;2024-02-26T05:25:58;2.70;;;1.50;;
43086;SDS011;28708;52.224;6.924;2024-02-26T05:28:23;3.23;;;1.83;;
43086;SDS011;28708;52.224;6.924;2024-02-26T05:30:49;4.33;;;1.63;;
43086;SDS011;28708;52.224;6.924;2024-02-26T05:33:15;3.53;;;1.83;;
43086;SDS011;28708;52.224;6.924;2024-02-26T05:35:40;3.07;;;1.70;;
43086;SDS011;28708;52.224;6.924;2024-02-26T05:38:06;3.10;;;1.70;;
43086;SDS011;28708;52.224;6.924;2024-02-26T05:40:32;1.70;;;1.30;;
43086;SDS011;28708;52.224;6.924;2024-02-26T05:42:57;4.37;;;2.03;;
43086;SDS011;28708;52.224;6.924;2024-02-26T05:45:23;3.57;;;1.97;;
43086;SDS011;28708;52.224;6.924;2024-02-26T05:47:48;4.00;;;1.60;;
43086;SDS011;28708;52.224;6.924;2024-02-26T05:50:15;2.60;;;1.60;;
43086;SDS011;28708;52.224;6.924;2024-02-26T05:52:40;1.70;;;1.10;;
43086;SDS011;28708;52.224;6.924;2024-02-26T05:55:07;2.57;;;1.47;;
43086;SDS011;28708;52.224;6.924;2024-02-26T05:57:33;2.80;;;1.33;;
43086;SDS011;28708;52.224;6.924;2024-02-26T05:59:59;2.10;;;1.37;;
43086;SDS011;28708;52.224;6.924;2024-02-26T06:02:36;2.27;;;1.17;;
43086;SDS011;28708;52.224;6.924;2024-02-26T06:05:02;1.80;;;1.20;;
43086;SDS011;28708;52.224;6.924;2024-02-26T06:07:28;2.10;;;1.10;;
43086;SDS011;28708;52.224;6.924;2024-02-26T06:09:53;2.00;;;1.13;;
43086;SDS011;28708;52.224;6.924;2024-02-26T06:12:19;2.13;;;1.23;;
43086;SDS011;28708;52.224;6.924;2024-02-26T06:14:45;2.40;;;1.10;;
43086;SDS011;28708;52.224;6.924;2024-02-26T06:17:10;2.50;;;1.40;;
43086;SDS011;28708;52.224;6.924;2024-02-26T06:19:36;2.67;;;1.37;;
43086;SDS011;28708;52.224;6.924;2024-02-26T06:22:02;1.70;;;1.10;;
43086;SDS011;28708;52.224;6.924;2024-02-26T06:24:27;1.63;;;1.10;;
43086;SDS011;28708;52.224;6.924;2024-02-26T06:26:53;2.40;;;1.50;;
43086;SDS011;28708;52.224;6.924;2024-02-26T06:29:18;2.20;;;1.43;;
43086;SDS011;28708;52.224;6.924;2024-02-26T06:31:44;1.70;;;1.07;;
43086;SDS011;28708;52.224;6.924;2024-02-26T06:34:10;3.07;;;1.60;;
43086;SDS011;28708;52.224;6.924;2024-02-26T06:36:36;1.93;;;1.10;;
43086;SDS011;28708;52.224;6.924;2024-02-26T06:39:02;2.33;;;1.20;;
43086;SDS011;28708;52.224;6.924;2024-02-26T06:41:27;3.27;;;1.50;;
43086;SDS011;28708;52.224;6.924;2024-02-26T06:43:58;2.80;;;1.57;;
43086;SDS011;28708;52.224;6.924;2024-02-26T06:46:23;2.93;;;1.60;;
43086;SDS011;28708;52.224;6.924;2024-02-26T06:48:51;3.17;;;1.40;;
43086;SDS011;28708;52.224;6.924;2024-02-26T06:51:17;2.63;;;1.53;;
43086;SDS011;28708;52.224;6.924;2024-02-26T06:53:43;4.57;;;1.57;;
43086;SDS011;28708;52.224;6.924;2024-02-26T06:56:08;2.87;;;1.47;;
43086;SDS011;28708;52.224;6.924;2024-02-26T06:58:34;3.07;;;1.53;;
43086;SDS011;28708;52.224;6.924;2024-02-26T07:00:59;2.20;;;1.00;;
43086;SDS011;28708;52.224;6.924;2024-02-26T07:03:25;2.47;;;1.20;;
43086;SDS011;28708;52.224;6.924;2024-02-26T07:05:51;3.27;;;1.80;;
43086;SDS011;28708;52.224;6.924;2024-02-26T07:08:17;2.40;;;1.17;;
43086;SDS011;28708;52.224;6.924;2024-02-26T07:10:43;2.93;;;1.70;;
43086;SDS011;28708;52.224;6.924;2024-02-26T07:13:08;2.37;;;1.50;;
43086;SDS011;28708;52.224;6.924;2024-02-26T07:15:34;4.23;;;1.93;;
43086;SDS011;28708;52.224;6.924;2024-02-26T07:18:00;3.60;;;1.73;;
43086;SDS011;28708;52.224;6.924;2024-02-26T07:20:28;2.67;;;1.77;;
43086;SDS011;28708;52.224;6.924;2024-02-26T07:22:55;3.63;;;2.07;;
43086;SDS011;28708;52.224;6.924;2024-02-26T07:25:21;2.87;;;1.53;;
43086;SDS011;28708;52.224;6.924;2024-02-26T07:27:47;3.90;;;1.77;;
43086;SDS011;28708;52.224;6.924;2024-02-26T07:30:12;3.10;;;1.90;;
43086;SDS011;28708;52.224;6.924;2024-02-26T07:32:38;4.03;;;1.73;;
43086;SDS011;28708;52.224;6.924;2024-02-26T07:35:04;3.10;;;1.70;;
43086;SDS011;28708;52.224;6.924;2024-02-26T07:37:30;2.27;;;1.50;;
43086;SDS011;28708;52.224;6.924;2024-02-26T07:39:56;3.67;;;1.73;;
43086;SDS011;28708;52.224;6.924;2024-02-26T07:42:21;3.77;;;1.83;;
43086;SDS011;28708;52.224;6.924;2024-02-26T07:44:47;4.27;;;2.10;;
43086;SDS011;28708;52.224;6.924;2024-02-26T07:47:13;3.80;;;1.90;;
43086;SDS011;28708;52.224;6.924;2024-02-26T07:49:39;4.13;;;2.40;;
43086;SDS011;28708;52.224;6.924;2024-02-26T07:52:05;4.53;;;2.00;;
43086;SDS011;28708;52.224;6.924;2024-02-26T07:54:31;3.53;;;2.10;;
43086;SDS011;28708;52.224;6.924;2024-02-26T07:56:57;4.87;;;2.60;;
43086;SDS011;28708;52.224;6.924;2024-02-26T07:59:23;4.77;;;2.43;;
43086;SDS011;28708;52.224;6.924;2024-02-26T08:01:52;3.50;;;2.10;;
43086;SDS011;28708;52.224;6.924;2024-02-26T08:04:18;5.03;;;2.40;;
43086;SDS011;28708;52.224;6.924;2024-02-26T08:06:43;5.63;;;2.83;;
43086;SDS011;28708;52.224;6.924;2024-02-26T08:09:09;5.67;;;3.23;;
43086;SDS011;28708;52.224;6.924;2024-02-26T08:11:35;5.57;;;2.63;;
43086;SDS011;28708;52.224;6.924;2024-02-26T08:14:01;8.03;;;2.73;;
43086;SDS011;28708;52.224;6.924;2024-02-26T08:16:26;7.07;;;2.73;;
43086;SDS011;28708;52.224;6.924;2024-02-26T08:18:52;4.77;;;2.80;;
43086;SDS011;28708;52.224;6.924;2024-02-26T08:21:18;5.30;;;3.43;;
43086;SDS011;28708;52.224;6.924;2024-02-26T08:23:43;6.00;;;2.70;;
43086;SDS011;28708;52.224;6.924;2024-02-26T08:26:09;4.87;;;2.67;;
43086;SDS011;28708;52.224;6.924;2024-02-26T08:28:36;6.10;;;2.50;;
43086;SDS011;28708;52.224;6.924;2024-02-26T08:31:03;4.07;;;2.17;;
43086;SDS011;28708;52.224;6.924;2024-02-26T08:33:28;4.83;;;2.70;;
43086;SDS011;28708;52.224;6.924;2024-02-26T08:35:55;6.70;;;2.73;;
43086;SDS011;28708;52.224;6.924;2024-02-26T08:38:20;5.27;;;2.47;;
43086;SDS011;28708;52.224;6.924;2024-02-26T08:40:46;6.20;;;2.50;;
43086;SDS011;28708;52.224;6.924;2024-02-26T08:43:12;4.63;;;2.63;;
43086;SDS011;28708;52.224;6.924;2024-02-26T08:45:38;5.93;;;3.13;;
43086;SDS011;28708;52.224;6.924;2024-02-26T08:48:03;4.73;;;2.47;;
43086;SDS011;28708;52.224;6.924;2024-02-26T08:50:29;5.20;;;2.87;;
43086;SDS011;28708;52.224;6.924;2024-02-26T08:52:55;5.30;;;2.60;;
43086;SDS011;28708;52.224;6.924;2024-02-26T08:55:20;5.87;;;3.10;;
43086;SDS011;28708;52.224;6.924;2024-02-26T08:57:46;5.07;;;2.67;;
43086;SDS011;28708;52.224;6.924;2024-02-26T09:00:13;7.17;;;3.03;;
43086;SDS011;28708;52.224;6.924;2024-02-26T09:02:40;5.73;;;2.57;;
43086;SDS011;28708;52.224;6.924;2024-02-26T09:05:08;5.10;;;2.60;;
43086;SDS011;28708;52.224;6.924;2024-02-26T09:07:35;5.00;;;3.00;;
43086;SDS011;28708;52.224;6.924;2024-02-26T09:10:01;6.27;;;3.03;;
43086;SDS011;28708;52.224;6.924;2024-02-26T09:12:27;4.87;;;2.63;;
43086;SDS011;28708;52.224;6.924;2024-02-26T09:14:53;6.30;;;2.77;;
43086;SDS011;28708;52.224;6.924;2024-02-26T09:17:23;3.85;;;2.42;;
43086;SDS011;28708;52.224;6.924;2024-02-26T09:19:48;6.13;;;2.93;;
43086;SDS011;28708;52.224;6.924;2024-02-26T09:22:14;6.07;;;2.57;;
43086;SDS011;28708;52.224;6.924;2024-02-26T09:24:40;5.03;;;2.47;;
43086;SDS011;28708;52.224;6.924;2024-02-26T09:27:05;4.47;;;2.70;;
43086;SDS011;28708;52.224;6.924;2024-02-26T09:29:31;5.33;;;2.70;;
43086;SDS011;28708;52.224;6.924;2024-02-26T09:31:58;5.77;;;2.80;;
43086;SDS011;28708;52.224;6.924;2024-02-26T09:34:23;4.27;;;2.70;;
43086;SDS011;28708;52.224;6.924;2024-02-26T09:36:49;5.97;;;3.43;;
43086;SDS011;28708;52.224;6.924;2024-02-26T09:39:15;5.23;;;2.70;;
43086;SDS011;28708;52.224;6.924;2024-02-26T09:41:45;5.90;;;3.17;;
43086;SDS011;28708;52.224;6.924;2024-02-26T09:44:11;5.30;;;2.70;;
43086;SDS011;28708;52.224;6.924;2024-02-26T09:46:40;6.28;;;3.58;;
43086;SDS011;28708;52.224;6.924;2024-02-26T09:49:06;6.73;;;3.20;;
43086;SDS011;28708;52.224;6.924;2024-02-26T09:51:33;7.80;;;3.23;;
43086;SDS011;28708;52.224;6.924;2024-02-26T09:53:59;7.10;;;3.60;;
43086;SDS011;28708;52.224;6.924;2024-02-26T09:56:26;6.77;;;3.27;;
43086;SDS011;28708;52.224;6.924;2024-02-26T09:58:52;6.47;;;3.27;;
43086;SDS011;28708;52.224;6.924;2024-02-26T10:01:20;8.40;;;3.73;;
43086;SDS011;28708;52.224;6.924;2024-02-26T10:03:48;8.87;;;3.70;;
43086;SDS011;28708;52.224;6.924;2024-02-26T10:06:21;8.07;;;3.67;;
43086;SDS011;28708;52.224;6.924;2024-02-26T10:08:47;7.30;;;3.57;;
43086;SDS011;28708;52.224;6.924;2024-02-26T10:11:13;9.37;;;4.50;;
43086;SDS011;28708;52.224;6.924;2024-02-26T10:13:41;11.17;;;4.13;;
43086;SDS011;28708;52.224;6.924;2024-02-26T10:16:06;9.57;;;4.13;;
43086;SDS011;28708;52.224;6.924;2024-02-26T10:18:48;9.20;;;4.13;;
43086;SDS011;28708;52.224;6.924;2024-02-26T10:21:16;10.13;;;4.23;;
43086;SDS011;28708;52.224;6.924;2024-02-26T10:23:43;9.43;;;4.53;;
43086;SDS011;28708;52.224;6.924;2024-02-26T10:26:10;8.47;;;4.20;;
43086;SDS011;28708;52.224;6.924;2024-02-26T10:28:37;7.77;;;4.50;;
43086;SDS011;28708;52.224;6.924;2024-02-26T10:31:04;10.23;;;4.70;;
43086;SDS011;28708;52.224;6.924;2024-02-26T10:33:32;10.47;;;4.70;;
43086;SDS011;28708;52.224;6.924;2024-02-26T10:36:00;11.07;;;4.70;;
43086;SDS011;28708;52.224;6.924;2024-02-26T10:38:26;14.77;;;5.23;;
43086;SDS011;28708;52.224;6.924;2024-02-26T10:40:52;10.03;;;5.17;;
43086;SDS011;28708;52.224;6.924;2024-02-26T10:43:18;12.03;;;5.37;;
43086;SDS011;28708;52.224;6.924;2024-02-26T10:45:43;10.73;;;5.20;;
43086;SDS011;28708;52.224;6.924;2024-02-26T10:48:10;8.27;;;4.33;;
43086;SDS011;28708;52.224;6.924;2024-02-26T10:50:38;9.27;;;4.73;;
43086;SDS011;28708;52.224;6.924;2024-02-26T10:53:05;8.20;;;4.40;;
43086;SDS011;28708;52.224;6.924;2024-02-26T10:55:47;11.00;;;5.03;;
43086;SDS011;28708;52.224;6.924;2024-02-26T10:58:24;7.90;;;3.60;;
43086;SDS011;28708;52.224;6.924;2024-02-26T11:00:50;10.93;;;4.60;;
43086;SDS011;28708;52.224;6.924;2024-02-26T11:03:17;15.43;;;5.80;;
43086;SDS011;28708;52.224;6.924;2024-02-26T11:05:46;11.17;;;4.97;;
43086;SDS011;28708;52.224;6.924;2024-02-26T11:08:13;9.33;;;4.53;;
43086;SDS011;28708;52.224;6.924;2024-02-26T11:10:40;10.17;;;5.20;;
43086;SDS011;28708;52.224;6.924;2024-02-26T11:13:07;11.13;;;5.23;;
43086;SDS011;28708;52.224;6.924;2024-02-26T11:15:36;10.10;;;4.23;;
43086;SDS011;28708;52.224;6.924;2024-02-26T11:18:02;9.27;;;4.77;;
43086;SDS011;28708;52.224;6.924;2024-02-26T11:20:29;10.17;;;4.43;;
43086;SDS011;28708;52.224;6.924;2024-02-26T11:22:56;11.10;;;3.80;;
43086;SDS011;28708;52.224;6.924;2024-02-26T11:25:21;8.07;;;3.53;;
43086;SDS011;28708;52.224;6.924;2024-02-26T11:27:50;7.30;;;3.20;;
43086;SDS011;28708;52.224;6.924;2024-02-26T11:30:24;8.00;;;3.63;;
43086;SDS011;28708;52.224;6.924;2024-02-26T11:32:51;7.00;;;3.30;;
43086;SDS011;28708;52.224;6.924;2024-02-26T11:35:18;5.43;;;3.10;;
43086;SDS011;28708;52.224;6.924;2024-02-26T11:37:54;7.70;;;3.33;;
43086;SDS011;28708;52.224;6.924;2024-02-26T11:40:22;10.23;;;3.50;;
43086;SDS011;28708;52.224;6.924;2024-02-26T11:42:50;6.77;;;3.47;;
43086;SDS011;28708;52.224;6.924;2024-02-26T11:45:50;7.53;;;3.10;;
43086;SDS011;28708;52.224;6.924;2024-02-26T11:48:13;6.53;;;2.80;;
43086;SDS011;28708;52.224;6.924;2024-02-26T11:50:39;6.57;;;2.77;;
43086;SDS011;28708;52.224;6.924;2024-02-26T11:53:22;6.27;;;3.20;;
43086;SDS011;28708;52.224;6.924;2024-02-26T11:55:48;5.13;;;2.30;;
43086;SDS011;28708;52.224;6.924;2024-02-26T11:58:33;8.67;;;2.33;;
43086;SDS011;28708;52.224;6.924;2024-02-26T12:00:59;4.73;;;2.37;;
43086;SDS011;28708;52.224;6.924;2024-02-26T12:03:25;7.43;;;2.93;;
43086;SDS011;28708;52.224;6.924;2024-02-26T12:05:51;3.57;;;2.33;;
43086;SDS011;28708;52.224;6.924;2024-02-26T12:08:17;6.33;;;2.70;;
43086;SDS011;28708;52.224;6.924;2024-02-26T12:10:45;5.67;;;2.97;;
43086;SDS011;28708;52.224;6.924;2024-02-26T12:13:11;5.23;;;2.60;;
43086;SDS011;28708;52.224;6.924;2024-02-26T12:18:15;7.30;;;2.63;;
43086;SDS011;28708;52.224;6.924;2024-02-26T12:20:42;4.53;;;2.57;;
43086;SDS011;28708;52.224;6.924;2024-02-26T12:23:15;5.03;;;2.30;;
43086;SDS011;28708;52.224;6.924;2024-02-26T12:25:43;6.00;;;2.77;;
43086;SDS011;28708;52.224;6.924;2024-02-26T12:28:09;7.40;;;2.97;;
43086;SDS011;28708;52.224;6.924;2024-02-26T12:30:35;5.80;;;3.07;;
43086;SDS011;28708;52.224;6.924;2024-02-26T12:33:00;4.90;;;2.63;;
43086;SDS011;28708;52.224;6.924;2024-02-26T12:35:27;6.83;;;3.23;;
43086;SDS011;28708;52.224;6.924;2024-02-26T12:37:53;7.97;;;3.40;;
43086;SDS011;28708;52.224;6.924;2024-02-26T12:40:19;7.27;;;3.20;;
43086;SDS011;28708;52.224;6.924;2024-02-26T12:42:46;7.30;;;2.93;;
43086;SDS011;28708;52.224;6.924;2024-02-26T12:45:12;6.03;;;2.87;;
43086;SDS011;28708;52.224;6.924;2024-02-26T12:47:39;6.13;;;2.73;;
43086;SDS011;28708;52.224;6.924;2024-02-26T12:50:09;5.13;;;3.10;;
43086;SDS011;28708;52.224;6.924;2024-02-26T12:52:39;6.87;;;2.90;;
43086;SDS011;28708;52.224;6.924;2024-02-26T12:55:08;4.73;;;2.67;;
43086;SDS011;28708;52.224;6.924;2024-02-26T12:57:37;5.33;;;2.70;;
43086;SDS011;28708;52.224;6.924;2024-02-26T13:00:06;5.27;;;2.97;;
43086;SDS011;28708;52.224;6.924;2024-02-26T13:02:36;6.10;;;2.67;;
43086;SDS011;28708;52.224;6.924;2024-02-26T13:05:03;7.70;;;3.17;;
43086;SDS011;28708;52.224;6.924;2024-02-26T13:07:31;5.70;;;2.77;;
43086;SDS011;28708;52.224;6.924;2024-02-26T13:09:56;6.20;;;2.80;;
43086;SDS011;28708;52.224;6.924;2024-02-26T13:12:22;5.77;;;2.70;;
43086;SDS011;28708;52.224;6.924;2024-02-26T13:14:58;5.20;;;2.53;;
43086;SDS011;28708;52.224;6.924;2024-02-26T13:17:27;4.67;;;2.37;;
43086;SDS011;28708;52.224;6.924;2024-02-26T13:19:56;5.67;;;2.57;;
43086;SDS011;28708;52.224;6.924;2024-02-26T13:22:21;5.83;;;2.70;;
43086;SDS011;28708;52.224;6.924;2024-02-26T13:24:54;4.13;;;1.97;;
43086;SDS011;28708;52.224;6.924;2024-02-26T13:27:24;6.47;;;2.87;;
43086;SDS011;28708;52.224;6.924;2024-02-26T13:30:11;5.67;;;2.40;;
43086;SDS011;28708;52.224;6.924;2024-02-26T13:32:37;4.60;;;2.33;;
43086;SDS011;28708;52.224;6.924;2024-02-26T13:35:11;5.43;;;2.67;;
43086;SDS011;28708;52.224;6.924;2024-02-26T13:37:37;7.07;;;2.77;;
43086;SDS011;28708;52.224;6.924;2024-02-26T13:40:08;4.93;;;2.30;;
43086;SDS011;28708;52.224;6.924;2024-02-26T13:42:35;4.80;;;2.40;;
43086;SDS011;28708;52.224;6.924;2024-02-26T13:45:02;4.43;;;2.23;;
43086;SDS011;28708;52.224;6.924;2024-02-26T13:47:28;4.37;;;2.30;;
43086;SDS011;28708;52.224;6.924;2024-02-26T13:49:54;4.70;;;2.50;;
43086;SDS011;28708;52.224;6.924;2024-02-26T13:52:19;5.10;;;2.40;;
43086;SDS011;28708;52.224;6.924;2024-02-26T13:54:45;5.50;;;2.63;;
43086;SDS011;28708;52.224;6.924;2024-02-26T13:57:11;5.97;;;2.73;;
43086;SDS011;28708;52.224;6.924;2024-02-26T13:59:37;5.73;;;2.93;;
43086;SDS011;28708;52.224;6.924;2024-02-26T14:02:06;5.10;;;2.35;;
43086;SDS011;28708;52.224;6.924;2024-02-26T14:04:32;5.77;;;2.77;;
43086;SDS011;28708;52.224;6.924;2024-02-26T14:06:58;5.70;;;3.07;;
43086;SDS011;28708;52.224;6.924;2024-02-26T14:09:23;4.33;;;2.40;;
43086;SDS011;28708;52.224;6.924;2024-02-26T14:11:49;4.80;;;2.50;;
43086;SDS011;28708;52.224;6.924;2024-02-26T14:14:15;5.13;;;2.23;;
43086;SDS011;28708;52.224;6.924;2024-02-26T14:16:40;4.17;;;2.37;;
43086;SDS011;28708;52.224;6.924;2024-02-26T14:19:06;6.93;;;2.70;;
43086;SDS011;28708;52.224;6.924;2024-02-26T14:21:31;5.80;;;2.80;;
43086;SDS011;28708;52.224;6.924;2024-02-26T14:23:57;5.53;;;2.37;;
43086;SDS011;28708;52.224;6.924;2024-02-26T14:26:23;6.50;;;2.90;;
43086;SDS011;28708;52.224;6.924;2024-02-26T14:28:49;6.00;;;2.80;;
43086;SDS011;28708;52.224;6.924;2024-02-26T14:31:17;5.13;;;2.73;;
43086;SDS011;28708;52.224;6.924;2024-02-26T14:33:43;7.77;;;3.70;;
43086;SDS011;28708;52.224;6.924;2024-02-26T14:36:09;5.53;;;2.63;;
43086;SDS011;28708;52.224;6.924;2024-02-26T14:38:35;4.07;;;2.20;;
43086;SDS011;28708;52.224;6.924;2024-02-26T14:41:01;4.77;;;2.50;;
43086;SDS011;28708;52.224;6.924;2024-02-26T14:43:27;4.50;;;2.37;;
43086;SDS011;28708;52.224;6.924;2024-02-26T14:45:53;7.67;;;3.07;;
43086;SDS011;28708;52.224;6.924;2024-02-26T14:48:19;4.97;;;2.20;;